Oluja — V7QE8 — position and weather

sailwx.info

Track history (hours):
 
Tides and Currents Weather Stations Pressure Air Temp Water Temp Dewpoint Dewpoint Depression Visibility Wind Speed Wind Dir Waves Ship Positions

Oluja

Last reported at 2015-Aug-04 00:06 UTC. Time now 2015-Aug-04 03:19 UTC.
Position N 36°33' W 000°09'.

Length 188 m; draft 8.9 m.

Type: Cargo ship. MMSI: 538003345.

Date/timePositionNaut miles runAvg speedWind from/ knotsBaromVisibWave heightAir tempDewpointWater temp
2015-Aug-04 00:06N 36°33' W 000°09'1313.0
2015-Aug-03 23:08N 36°30' W 000°24'1013.2
2015-Aug-03 22:23N 36°28' W 000°36'1113.1
2015-Aug-03 21:33N 36°26' W 000°50'1612.1
2015-Aug-03 20:13N 36°23' W 001°10'3612.0
2015-Aug-03 17:11N 36°16' W 001°54'36812.2
2015-Aug-02 11:04N 36°25' W 009°30'6312.5
2015-Aug-02 06:04N 36°34' W 010°47'712.1
2015-Aug-02 05:32N 36°35' W 010°56'2612.2
2015-Aug-02 03:23N 36°38' W 011°28'1012.2
2015-Aug-02 02:32N 36°39' W 011°41'1312.1
2015-Aug-02 01:26N 36°41' W 011°58'1212.3
2015-Aug-02 00:26N 36°42' W 012°13'1212.2
2015-Aug-01 23:29N 36°43' W 012°27'2311.8
2015-Aug-01 21:33N 36°46' W 012°55'1211.8
2015-Aug-01 20:32N 36°47' W 013°10'2611.6
2015-Aug-01 18:19N 36°50' W 013°42'911.3
2015-Aug-01 17:30N 36°51' W 013°54'47311.8
2015-Jul-31 01:34N 37°27' W 023°45'1212.3
2015-Jul-31 00:33N 37°27' W 024°01'1212.2
2015-Jul-30 23:34N 37°28' W 024°16'1212.1
2015-Jul-30 22:33N 37°28' W 024°31'1211.9
2015-Jul-30 21:33N 37°28' W 024°46'1212.2
2015-Jul-30 20:33N 37°28' W 025°02'1312.6
2015-Jul-30 19:33N 37°28' W 025°17'1312.6
2015-Jul-30 18:33N 37°28' W 025°33'1212.5
2015-Jul-30 17:33N 37°27' W 025°49'1212.4
2015-Jul-30 16:34N 37°28' W 026°05'1212.2
2015-Jul-30 15:33N 37°27' W 026°20'1312.8
2015-Jul-30 14:33N 37°27' W 026°36'1212.4
2015-Jul-30 13:33N 37°28' W 026°52'1212.1
2015-Jul-30 12:33N 37°28' W 027°07'1312.2
2015-Jul-30 11:31N 37°28' W 027°23'1212.5
2015-Jul-30 10:33N 37°28' W 027°38'1312.6
2015-Jul-30 09:33N 37°28' W 027°54'1313.0
2015-Jul-30 08:33N 37°28' W 028°10'1312.7
2015-Jul-30 07:33N 37°28' W 028°26'1312.7
2015-Jul-30 06:34N 37°28' W 028°42'1312.6
2015-Jul-30 05:33N 37°29' W 028°58'1312.9
2015-Jul-30 04:33N 37°29' W 029°14'1312.8
2015-Jul-30 03:33N 37°29' W 029°31'1812.7
2015-Jul-30 02:09N 37°29' W 029°53'  
Track history (hours):
 
Tides and Currents Weather Stations Pressure Air Temp Water Temp Dewpoint Dewpoint Depression Visibility Wind Speed Wind Dir Waves Ship Positions

Oluja

Last reported at 2015-Aug-04 00:06 UTC. Time now 2015-Aug-04 03:19 UTC.
Position N 36°33' W 000°09'.

Length 188 m; draft 8.9 m.

Type: Cargo ship. MMSI: 538003345.

Date/timePositionNaut miles runAvg speedWind from/ knotsBaromVisibWave heightAir tempDewpointWater temp
2015-Aug-04 00:06N 36°33' W 000°09'1313.0
2015-Aug-03 23:08N 36°30' W 000°24'1013.2
2015-Aug-03 22:23N 36°28' W 000°36'1113.1
2015-Aug-03 21:33N 36°26' W 000°50'1612.1
2015-Aug-03 20:13N 36°23' W 001°10'3612.0
2015-Aug-03 17:11N 36°16' W 001°54'36812.2
2015-Aug-02 11:04N 36°25' W 009°30'6312.5
2015-Aug-02 06:04N 36°34' W 010°47'712.1
2015-Aug-02 05:32N 36°35' W 010°56'2612.2
2015-Aug-02 03:23N 36°38' W 011°28'1012.2
2015-Aug-02 02:32N 36°39' W 011°41'1312.1
2015-Aug-02 01:26N 36°41' W 011°58'1212.3
2015-Aug-02 00:26N 36°42' W 012°13'1212.2
2015-Aug-01 23:29N 36°43' W 012°27'2311.8
2015-Aug-01 21:33N 36°46' W 012°55'1211.8
2015-Aug-01 20:32N 36°47' W 013°10'2611.6
2015-Aug-01 18:19N 36°50' W 013°42'911.3
2015-Aug-01 17:30N 36°51' W 013°54'47311.8
2015-Jul-31 01:34N 37°27' W 023°45'1212.3
2015-Jul-31 00:33N 37°27' W 024°01'1212.2
2015-Jul-30 23:34N 37°28' W 024°16'1212.1
2015-Jul-30 22:33N 37°28' W 024°31'1211.9
2015-Jul-30 21:33N 37°28' W 024°46'1212.2
2015-Jul-30 20:33N 37°28' W 025°02'1312.6
2015-Jul-30 19:33N 37°28' W 025°17'1312.6
2015-Jul-30 18:33N 37°28' W 025°33'1212.5
2015-Jul-30 17:33N 37°27' W 025°49'1212.4
2015-Jul-30 16:34N 37°28' W 026°05'1212.2
2015-Jul-30 15:33N 37°27' W 026°20'1312.8
2015-Jul-30 14:33N 37°27' W 026°36'1212.4
2015-Jul-30 13:33N 37°28' W 026°52'1212.1
2015-Jul-30 12:33N 37°28' W 027°07'1312.2
2015-Jul-30 11:31N 37°28' W 027°23'1212.5
2015-Jul-30 10:33N 37°28' W 027°38'1312.6
2015-Jul-30 09:33N 37°28' W 027°54'1313.0
2015-Jul-30 08:33N 37°28' W 028°10'1312.7
2015-Jul-30 07:33N 37°28' W 028°26'1312.7
2015-Jul-30 06:34N 37°28' W 028°42'1312.6
2015-Jul-30 05:33N 37°29' W 028°58'1312.9
2015-Jul-30 04:33N 37°29' W 029°14'1312.8
2015-Jul-30 03:33N 37°29' W 029°31'1812.7
2015-Jul-30 02:09N 37°29' W 029°53'  

Dump ship's entire track history